Time;durP1;ratioP1;P1;durP2;ratioP2;P2;SDS_P1;SDS_P2;PMS_P1;PMS_P2;Temp;Humidity;BMP_temperature;BMP_pressure;BME280_temperature;BME280_humidity;BME280_pressure;Samples;Min_cycle;Max_cycle;Signal;HPM_P1;HPM_P2
2022/03/03 00:00:09;;;;;;;20.77;13.53;;;-0.40;99.90;;;;;;4957591;28;20180;-86
2022/03/03 00:02:34;;;;;;;23.53;13.93;;;-0.40;99.90;;;;;;4957533;29;20177;-86
2022/03/03 00:05:01;;;;;;;20.20;12.63;;;-0.40;99.90;;;;;;4957485;29;20174;-86
2022/03/03 00:07:26;;;;;;;19.17;12.50;;;-0.40;99.90;;;;;;4940225;29;20185;-87
2022/03/03 00:09:52;;;;;;;18.77;12.73;;;-0.30;99.90;;;;;;4957354;29;20304;-86
2022/03/03 00:12:18;;;;;;;18.00;12.37;;;-0.20;99.90;;;;;;4957276;28;20184;-87
2022/03/03 00:14:45;;;;;;;20.87;13.13;;;-0.20;99.90;;;;;;4957219;29;20182;-86
2022/03/03 00:17:11;;;;;;;21.47;12.73;;;-0.20;99.90;;;;;;4956987;28;20244;-86
2022/03/03 00:19:37;;;;;;;16.77;12.17;;;-0.30;99.90;;;;;;4957209;28;20259;-86
2022/03/03 00:22:03;;;;;;;19.00;13.10;;;-0.30;99.90;;;;;;4957343;29;20172;-87
2022/03/03 00:24:29;;;;;;;18.73;13.27;;;-0.30;99.90;;;;;;4956851;28;20272;-86
2022/03/03 00:26:55;;;;;;;18.13;12.50;;;-0.30;99.90;;;;;;4938974;29;20275;-86
2022/03/03 00:29:20;;;;;;;22.90;12.60;;;-0.40;99.90;;;;;;4956819;29;20295;-86
2022/03/03 00:31:46;;;;;;;17.30;11.93;;;-0.40;99.90;;;;;;4939636;29;20217;-85
2022/03/03 00:34:13;;;;;;;17.57;11.60;;;-0.40;99.90;;;;;;4939940;29;20190;-86
2022/03/03 00:36:40;;;;;;;20.63;13.23;;;-0.40;99.90;;;;;;4957104;29;20264;-86
2022/03/03 00:39:06;;;;;;;22.47;12.73;;;-0.40;99.90;;;;;;4940151;29;20184;-86
2022/03/03 00:41:31;;;;;;;18.67;13.30;;;-0.40;99.90;;;;;;4956989;29;20184;-85
2022/03/03 00:43:57;;;;;;;17.87;11.63;;;-0.40;99.90;;;;;;4956594;29;20173;-86
2022/03/03 00:46:25;;;;;;;18.07;12.10;;;-0.40;99.90;;;;;;4957092;29;20177;-86
2022/03/03 00:48:51;;;;;;;18.27;11.93;;;-0.40;99.90;;;;;;4956736;29;20204;-86
2022/03/03 00:51:18;;;;;;;19.70;12.70;;;-0.40;99.90;;;;;;4956733;29;20173;-87
2022/03/03 00:53:44;;;;;;;16.83;11.87;;;-0.50;99.90;;;;;;4956832;29;20611;-86
2022/03/03 00:56:09;;;;;;;19.43;12.00;;;-0.60;99.90;;;;;;4956588;28;20185;-86
2022/03/03 00:58:35;;;;;;;18.17;12.43;;;-0.50;99.90;;;;;;4956377;29;20188;-86
2022/03/03 01:01:01;;;;;;;18.97;13.23;;;-0.60;99.90;;;;;;4956736;29;20183;-86
2022/03/03 01:03:28;;;;;;;18.77;13.03;;;-0.50;99.90;;;;;;4939628;29;20199;-86
2022/03/03 01:05:53;;;;;;;18.50;12.93;;;-0.60;99.90;;;;;;4956523;29;20183;-86
2022/03/03 01:08:19;;;;;;;18.77;13.10;;;-0.60;99.90;;;;;;4956344;29;20168;-86
2022/03/03 01:10:45;;;;;;;19.77;13.00;;;-0.60;99.90;;;;;;4956431;29;20186;-85
2022/03/03 01:13:11;;;;;;;19.03;13.20;;;-0.70;99.90;;;;;;4939497;29;20263;-86
2022/03/03 01:15:37;;;;;;;17.30;12.67;;;-0.60;99.90;;;;;;4939088;29;20188;-86
2022/03/03 01:18:03;;;;;;;19.13;13.07;;;-0.70;99.90;;;;;;4939224;29;20239;-86
2022/03/03 01:20:29;;;;;;;21.00;13.90;;;-0.70;99.90;;;;;;4956545;28;20512;-86
2022/03/03 01:22:55;;;;;;;16.80;12.17;;;-0.70;99.90;;;;;;4956488;29;20184;-86
2022/03/03 01:25:21;;;;;;;19.60;12.67;;;-0.60;99.90;;;;;;4956214;29;20178;-86
2022/03/03 01:27:47;;;;;;;17.57;13.03;;;-0.60;99.90;;;;;;4956692;28;20199;-86
2022/03/03 01:30:12;;;;;;;22.40;13.83;;;-0.70;99.90;;;;;;4960109;28;20298;-86
2022/03/03 01:32:38;;;;;;;22.40;12.83;;;-0.80;99.90;;;;;;4960182;28;20262;-86
2022/03/03 01:35:04;;;;;;;19.27;12.80;;;-0.80;99.90;;;;;;4943107;29;20192;-86
2022/03/03 01:37:30;;;;;;;17.40;12.27;;;-0.80;99.90;;;;;;4943113;29;20175;-86
2022/03/03 01:39:56;;;;;;;17.83;12.43;;;-0.80;99.90;;;;;;4960073;28;20529;-86
2022/03/03 01:42:22;;;;;;;17.67;12.50;;;-0.70;99.90;;;;;;4959906;29;20228;-86
2022/03/03 01:44:47;;;;;;;21.60;13.03;;;-0.70;99.90;;;;;;4959386;28;20181;-86
2022/03/03 01:47:24;;;;;;;20.97;14.80;;;-0.70;99.90;;;;;;4959776;29;20671;-86
2022/03/03 01:49:52;;;;;;;20.27;12.73;;;-0.90;99.90;;;;;;4960015;29;20235;-86
2022/03/03 01:52:19;;;;;;;21.23;13.20;;;-0.90;99.90;;;;;;4959855;28;20235;-86
2022/03/03 01:54:45;;;;;;;22.00;13.77;;;-1.00;99.90;;;;;;4942495;29;20245;-86
2022/03/03 01:57:11;;;;;;;20.80;12.50;;;-1.00;99.90;;;;;;4959535;29;20176;-86
2022/03/03 01:59:38;;;;;;;19.30;13.30;;;-1.00;99.90;;;;;;4959716;28;20675;-86
2022/03/03 02:02:08;;;;;;;18.67;13.33;;;-1.10;99.90;;;;;;4959599;29;20179;-85
2022/03/03 02:04:34;;;;;;;19.73;13.27;;;-1.00;99.90;;;;;;4959661;29;20636;-86
2022/03/03 02:07:00;;;;;;;17.77;12.07;;;-1.10;99.90;;;;;;4942239;29;20171;-86
2022/03/03 02:09:26;;;;;;;19.13;12.60;;;-1.10;99.90;;;;;;4959840;28;20583;-86
2022/03/03 02:11:52;;;;;;;17.90;12.73;;;-1.10;99.90;;;;;;4959955;29;20196;-86
2022/03/03 02:14:18;;;;;;;18.57;12.90;;;-1.20;99.90;;;;;;4959216;28;20241;-86
2022/03/03 02:16:44;;;;;;;19.27;12.90;;;-1.20;99.90;;;;;;4959395;29;20194;-86
2022/03/03 02:19:18;;;;;;;21.80;13.90;;;-1.30;99.90;;;;;;4959472;29;20268;-86
2022/03/03 02:21:51;;;;;;;22.20;13.00;;;-1.20;99.90;;;;;;4959328;29;20180;-86
2022/03/03 02:24:18;;;;;;;19.53;12.97;;;-1.20;99.90;;;;;;4941228;29;20188;-86
2022/03/03 02:26:45;;;;;;;17.07;12.43;;;-1.20;99.90;;;;;;4959101;29;20215;-86
2022/03/03 02:29:11;;;;;;;19.87;12.70;;;-1.30;99.90;;;;;;4958936;29;20219;-85
2022/03/03 02:31:36;;;;;;;16.77;11.73;;;-1.30;99.90;;;;;;4959286;29;20185;-86
2022/03/03 02:34:02;;;;;;;23.47;13.00;;;-1.30;99.90;;;;;;4958911;29;20236;-86
2022/03/03 02:36:29;;;;;;;18.97;12.63;;;-1.50;99.90;;;;;;4958994;29;20180;-86
2022/03/03 02:39:01;;;;;;;19.73;13.37;;;-1.40;99.90;;;;;;4941505;29;20179;-86
2022/03/03 02:41:28;;;;;;;17.93;12.13;;;-1.40;99.90;;;;;;4958972;29;20187;-86
2022/03/03 02:43:55;;;;;;;19.67;13.13;;;-1.40;99.90;;;;;;4941877;29;20181;-85
2022/03/03 02:46:21;;;;;;;18.50;12.57;;;-1.40;99.90;;;;;;4958783;29;20227;-85
2022/03/03 02:48:46;;;;;;;19.10;13.07;;;-1.50;99.90;;;;;;4958524;29;20204;-85
2022/03/03 02:51:13;;;;;;;19.73;13.13;;;-1.50;99.90;;;;;;4959004;29;20247;-85
2022/03/03 02:56:15;;;;;;;19.20;12.47;;;-1.50;99.90;;;;;;5271620;23;20695;-86
2022/03/03 02:58:41;;;;;;;17.13;11.63;;;-1.40;99.90;;;;;;4923239;29;20178;-87
2022/03/03 03:01:07;;;;;;;19.43;12.47;;;-1.40;99.90;;;;;;4922973;29;20276;-86
2022/03/03 03:03:33;;;;;;;18.27;12.43;;;-1.40;99.90;;;;;;4942669;29;20282;-86
2022/03/03 03:05:59;;;;;;;22.47;14.00;;;-1.50;99.90;;;;;;4941977;29;20226;-86
2022/03/03 03:08:25;;;;;;;19.93;13.23;;;-1.60;99.90;;;;;;4958914;29;20190;-86
2022/03/03 03:10:51;;;;;;;19.43;13.87;;;-1.60;99.90;;;;;;4941809;29;20192;-86
2022/03/03 03:13:16;;;;;;;24.90;13.83;;;-1.70;99.90;;;;;;4942028;29;20182;-86
2022/03/03 03:15:43;;;;;;;22.67;13.90;;;-1.80;99.90;;;;;;4941864;29;20187;-86
2022/03/03 03:18:11;;;;;;;21.40;14.37;;;-1.90;99.90;;;;;;4941690;29;20186;-85
2022/03/03 03:20:39;;;;;;;20.30;13.03;;;-1.90;99.90;;;;;;4941980;29;20190;-86
2022/03/03 03:23:09;;;;;;;20.17;13.67;;;-1.90;99.90;;;;;;4941698;29;20191;-86
2022/03/03 03:25:37;;;;;;;19.67;13.83;;;-1.90;99.90;;;;;;4941135;29;20185;-85
2022/03/03 03:28:08;;;;;;;24.97;14.47;;;-1.90;99.90;;;;;;4941863;29;20270;-85
2022/03/03 03:30:35;;;;;;;18.93;13.80;;;-1.90;99.90;;;;;;4958767;29;20551;-86
2022/03/03 03:33:00;;;;;;;22.47;14.30;;;-1.90;99.90;;;;;;4941848;29;20184;-86
2022/03/03 03:35:26;;;;;;;23.37;13.63;;;-2.00;99.90;;;;;;4958835;29;20191;-86
2022/03/03 03:37:54;;;;;;;22.63;13.60;;;-1.90;99.90;;;;;;4941652;29;20190;-86
2022/03/03 03:40:20;;;;;;;20.50;13.73;;;-1.80;99.90;;;;;;4957550;29;20172;-86
2022/03/03 03:42:46;;;;;;;19.43;13.53;;;-1.90;99.90;;;;;;4957511;29;20641;-86
2022/03/03 03:45:13;;;;;;;22.13;13.80;;;-1.90;99.90;;;;;;4941287;29;20190;-86
2022/03/03 03:47:59;;;;;;;22.80;13.43;;;-2.00;99.90;;;;;;4958319;29;20617;-86
2022/03/03 03:50:25;;;;;;;22.53;14.10;;;-1.90;99.90;;;;;;4940916;29;20211;-86
2022/03/03 03:52:51;;;;;;;22.37;14.53;;;-1.90;99.90;;;;;;4958787;29;20251;-86
2022/03/03 03:55:16;;;;;;;23.50;15.20;;;-1.90;99.90;;;;;;4956449;28;20230;-86
2022/03/03 03:57:43;;;;;;;19.53;13.63;;;-1.90;99.90;;;;;;4956910;29;20178;-86
2022/03/03 04:00:15;;;;;;;21.93;14.90;;;-2.00;99.90;;;;;;4958331;29;20622;-87
2022/03/03 04:02:42;;;;;;;26.33;15.03;;;-2.00;99.90;;;;;;4958098;29;20169;-86
2022/03/03 04:05:09;;;;;;;23.70;14.43;;;-2.00;99.90;;;;;;4957963;29;20181;-86
2022/03/03 04:07:37;;;;;;;23.80;16.13;;;-2.00;99.90;;;;;;4940919;29;20189;-84
2022/03/03 04:10:04;;;;;;;22.23;14.33;;;-2.00;99.90;;;;;;4940622;29;20227;-86
2022/03/03 04:12:29;;;;;;;24.23;15.73;;;-2.10;99.90;;;;;;4940692;29;20177;-86
2022/03/03 04:14:55;;;;;;;24.63;17.27;;;-2.10;99.90;;;;;;4940706;29;20194;-86
2022/03/03 04:17:26;;;;;;;31.33;18.50;;;-2.20;99.90;;;;;;4957689;29;20177;-86
2022/03/03 04:19:51;;;;;;;28.77;17.73;;;-2.20;99.90;;;;;;4957748;29;20161;-85
2022/03/03 04:22:17;;;;;;;25.27;16.03;;;-2.10;99.90;;;;;;4957864;29;20188;-86
2022/03/03 04:24:43;;;;;;;22.63;15.00;;;-2.00;99.90;;;;;;4940488;29;20182;-86
2022/03/03 04:27:09;;;;;;;22.33;15.10;;;-2.00;99.90;;;;;;4940372;29;20233;-86
2022/03/03 04:29:34;;;;;;;22.83;14.63;;;-2.10;99.90;;;;;;4940714;29;20210;-84
2022/03/03 04:32:00;;;;;;;22.53;15.03;;;-2.10;99.90;;;;;;4956662;29;20181;-86
2022/03/03 04:34:26;;;;;;;22.30;15.37;;;-2.00;99.90;;;;;;4940322;29;20216;-86
2022/03/03 04:36:56;;;;;;;25.40;15.87;;;-2.00;99.90;;;;;;4940422;29;20225;-86
2022/03/03 04:39:22;;;;;;;23.13;13.90;;;-2.00;99.90;;;;;;4957515;29;20179;-86
2022/03/03 04:41:47;;;;;;;22.50;14.47;;;-2.10;99.90;;;;;;4957182;29;20207;-86
2022/03/03 04:44:13;;;;;;;24.07;15.23;;;-2.10;99.90;;;;;;4940913;29;20186;-86
2022/03/03 04:46:39;;;;;;;25.77;15.33;;;-2.10;99.90;;;;;;4956971;29;20183;-86
2022/03/03 04:49:05;;;;;;;22.03;14.60;;;-2.20;99.90;;;;;;4921242;29;20247;-86
2022/03/03 04:51:31;;;;;;;22.60;14.03;;;-2.30;99.90;;;;;;4938100;29;20257;-86
2022/03/03 04:53:57;;;;;;;22.93;14.83;;;-2.20;99.90;;;;;;4937880;29;20206;-86
2022/03/03 04:56:23;;;;;;;22.27;14.57;;;-2.20;99.90;;;;;;4936558;29;20227;-86
2022/03/03 04:58:59;;;;;;;24.50;15.27;;;-2.30;99.90;;;;;;4938032;29;20185;-84
2022/03/03 05:01:25;;;;;;;24.13;15.80;;;-2.50;99.90;;;;;;4921193;29;20183;-86
2022/03/03 05:03:51;;;;;;;25.70;15.83;;;-2.70;99.90;;;;;;4942795;29;20186;-86
2022/03/03 05:06:17;;;;;;;25.17;15.63;;;-2.70;99.90;;;;;;4939943;29;20190;-86
2022/03/03 05:08:44;;;;;;;24.13;16.33;;;-2.60;99.90;;;;;;4955856;29;20627;-85
2022/03/03 05:11:10;;;;;;;24.80;15.63;;;-2.60;99.90;;;;;;4956881;29;20197;-85
2022/03/03 05:13:37;;;;;;;23.57;15.53;;;-2.70;99.90;;;;;;4940066;29;20182;-85
2022/03/03 05:16:03;;;;;;;24.70;15.37;;;-2.60;99.90;;;;;;4957050;29;20177;-85
2022/03/03 05:18:30;;;;;;;26.43;15.70;;;-2.60;99.90;;;;;;4939988;29;20516;-85
2022/03/03 05:20:56;;;;;;;26.53;16.93;;;-2.60;99.90;;;;;;4957025;29;20232;-85
2022/03/03 05:23:22;;;;;;;24.93;15.97;;;-2.60;99.90;;;;;;4957121;29;20173;-86
2022/03/03 05:25:48;;;;;;;24.80;16.50;;;-2.50;99.90;;;;;;4956736;29;20236;-86
2022/03/03 05:28:16;;;;;;;24.97;16.93;;;-2.50;99.90;;;;;;4939934;29;20207;-86
2022/03/03 05:30:42;;;;;;;25.20;17.27;;;-2.50;99.90;;;;;;4955840;29;20215;-86
2022/03/03 05:33:08;;;;;;;30.17;18.77;;;-2.40;99.90;;;;;;4956850;29;20529;-86
2022/03/03 05:35:34;;;;;;;27.60;17.73;;;-2.40;99.90;;;;;;4918776;29;20176;-85
2022/03/03 05:38:00;;;;;;;26.67;17.70;;;-2.40;99.90;;;;;;4901828;29;20177;-86
2022/03/03 05:40:26;;;;;;;30.27;17.70;;;-2.50;99.90;;;;;;4901676;29;20617;-86
2022/03/03 05:42:52;;;;;;;29.37;17.60;;;-2.50;99.90;;;;;;4901631;29;20521;-85
2022/03/03 05:45:18;;;;;;;31.33;18.13;;;-2.50;99.90;;;;;;4901776;29;20186;-85
2022/03/03 05:47:54;;;;;;;34.20;18.90;;;-2.50;99.90;;;;;;4901725;29;20190;-86
2022/03/03 05:50:20;;;;;;;30.17;18.10;;;-2.50;99.90;;;;;;4901634;29;20626;-85
2022/03/03 05:52:46;;;;;;;32.60;18.67;;;-2.50;99.90;;;;;;4901810;29;20193;-85
2022/03/03 05:55:12;;;;;;;33.13;19.50;;;-2.50;99.90;;;;;;4901446;29;20230;-85
2022/03/03 05:57:44;;;;;;;34.43;18.53;;;-2.50;99.90;;;;;;4901775;29;20178;-84
2022/03/03 06:00:16;;;;;;;30.13;18.53;;;-2.50;99.90;;;;;;4901870;29;20210;-85
2022/03/03 06:02:53;;;;;;;31.53;17.77;;;-2.50;99.90;;;;;;4901696;29;20188;-85
2022/03/03 06:05:22;;;;;;;27.87;18.20;;;-2.50;99.90;;;;;;4952783;29;20255;-85
2022/03/03 06:07:53;;;;;;;28.20;17.27;;;-2.50;99.90;;;;;;4939465;29;20241;-85
2022/03/03 06:10:22;;;;;;;31.33;18.00;;;-2.50;99.90;;;;;;4939367;29;20227;-85
2022/03/03 06:12:51;;;;;;;31.83;19.43;;;-2.50;99.90;;;;;;4939515;29;20632;-85
2022/03/03 06:15:21;;;;;;;33.80;19.33;;;-2.50;99.90;;;;;;4942162;29;20190;-85
2022/03/03 06:17:48;;;;;;;38.77;19.93;;;-2.50;99.90;;;;;;4959989;29;20179;-85
2022/03/03 06:20:15;;;;;;;34.73;20.17;;;-2.50;99.90;;;;;;4942935;29;20181;-86
2022/03/03 06:22:41;;;;;;;35.60;20.73;;;-2.50;99.90;;;;;;4942843;29;20244;-85
2022/03/03 06:25:08;;;;;;;32.90;19.20;;;-2.50;99.90;;;;;;4959732;29;20185;-85
2022/03/03 06:27:34;;;;;;;33.70;19.43;;;-2.50;99.90;;;;;;4942445;29;20602;-85
2022/03/03 06:30:02;;;;;;;31.60;19.33;;;-2.40;99.90;;;;;;4942804;29;20566;-86
2022/03/03 06:32:28;;;;;;;33.40;19.30;;;-2.50;99.90;;;;;;4958599;29;20236;-86
2022/03/03 06:34:54;;;;;;;30.13;18.00;;;-2.50;99.90;;;;;;4958489;29;20193;-85
2022/03/03 06:37:19;;;;;;;28.13;17.37;;;-2.60;99.90;;;;;;4942481;29;20588;-86
2022/03/03 06:39:51;;;;;;;32.67;17.97;;;-2.60;99.90;;;;;;4958392;29;20201;-86
2022/03/03 06:42:17;;;;;;;30.17;18.13;;;-2.50;99.90;;;;;;4942267;29;20169;-85
2022/03/03 06:44:42;;;;;;;29.00;18.07;;;-2.50;99.90;;;;;;4942279;29;20186;-86
2022/03/03 06:47:08;;;;;;;32.10;18.17;;;-2.40;99.90;;;;;;4959336;29;20185;-86
2022/03/03 06:49:37;;;;;;;28.70;17.93;;;-2.40;99.90;;;;;;4958304;29;20285;-86
2022/03/03 06:52:06;;;;;;;28.80;18.37;;;-2.40;99.90;;;;;;4942452;29;20193;-86
2022/03/03 06:54:33;;;;;;;27.53;17.70;;;-2.30;99.90;;;;;;4942073;29;20189;-86
2022/03/03 06:56:59;;;;;;;29.47;18.50;;;-2.30;99.90;;;;;;4941767;29;20237;-86
2022/03/03 06:59:38;;;;;;;30.97;18.63;;;-2.20;99.90;;;;;;4942266;29;20182;-86
2022/03/03 07:02:04;;;;;;;27.87;18.13;;;-2.20;99.90;;;;;;4942092;29;20611;-86
2022/03/03 07:04:33;;;;;;;31.03;18.70;;;-2.10;99.90;;;;;;4931506;29;20642;-87
2022/03/03 07:06:59;;;;;;;31.23;19.73;;;-2.00;99.90;;;;;;4922771;29;20198;-85
2022/03/03 07:09:25;;;;;;;33.87;19.77;;;-1.90;99.90;;;;;;4922577;29;20225;-86
2022/03/03 07:11:51;;;;;;;36.00;20.50;;;-1.80;99.90;;;;;;4922808;29;20187;-86
2022/03/03 07:14:18;;;;;;;39.97;24.17;;;-1.80;99.90;;;;;;4922928;29;20186;-87
2022/03/03 07:16:52;;;;;;;40.90;24.70;;;-1.70;99.90;;;;;;4922906;29;20527;-87
2022/03/03 07:19:45;;;;;;;37.60;22.33;;;-1.60;99.90;;;;;;4938761;29;20177;-87
2022/03/03 07:22:38;;;;;;;34.57;21.07;;;-1.70;99.90;;;;;;4922955;29;20178;-87
2022/03/03 07:25:11;;;;;;;37.43;21.90;;;-1.60;99.90;;;;;;4939063;28;20204;-87
2022/03/03 07:27:45;;;;;;;39.73;22.27;;;-1.60;99.90;;;;;;4941128;29;20183;-88
2022/03/03 07:30:15;;;;;;;41.13;24.93;;;-1.60;99.90;;;;;;4941653;29;20211;-87
2022/03/03 07:32:47;;;;;;;45.70;25.93;;;-1.50;99.90;;;;;;4941701;29;20173;-88
2022/03/03 07:35:14;;;;;;;44.90;26.47;;;-1.50;99.90;;;;;;4941588;29;20514;-87
2022/03/03 07:37:52;;;;;;;44.17;27.03;;;-1.50;99.90;;;;;;4958386;29;20181;-87
2022/03/03 07:40:33;;;;;;;50.43;27.73;;;-1.40;99.90;;;;;;4941537;29;20206;-87
2022/03/03 07:42:59;;;;;;;51.30;28.60;;;-1.30;99.90;;;;;;4941497;29;20187;-87
2022/03/03 07:45:26;;;;;;;50.40;29.97;;;-1.20;99.90;;;;;;4941439;29;20186;-87
2022/03/03 07:47:55;;;;;;;62.43;34.50;;;-1.10;99.90;;;;;;4941255;29;20268;-87
2022/03/03 07:50:23;;;;;;;56.90;31.10;;;-1.00;99.90;;;;;;4958232;29;20234;-87
2022/03/03 07:52:49;;;;;;;58.73;32.73;;;-0.90;99.90;;;;;;4941349;29;20172;-87
2022/03/03 07:55:16;;;;;;;60.00;33.33;;;-0.90;99.90;;;;;;4941091;29;20265;-87
2022/03/03 07:58:00;;;;;;;59.23;33.30;;;-0.80;99.90;;;;;;4940748;29;20242;-87
2022/03/03 08:00:34;;;;;;;58.03;32.40;;;-0.70;99.90;;;;;;4941154;29;20188;-88
2022/03/03 08:03:04;;;;;;;61.13;33.77;;;-0.60;99.90;;;;;;4941118;29;20181;-87
2022/03/03 08:05:31;;;;;;;61.50;34.80;;;-0.60;99.90;;;;;;4958063;29;20164;-88
2022/03/03 08:08:00;;;;;;;60.90;33.83;;;-0.50;99.90;;;;;;4941028;29;20176;-88
2022/03/03 08:10:30;;;;;;;59.93;33.60;;;-0.40;99.90;;;;;;4940775;29;20223;-88
2022/03/03 08:12:59;;;;;;;60.10;33.73;;;-0.30;99.90;;;;;;4940896;29;20181;-86
2022/03/03 08:15:25;;;;;;;60.03;33.27;;;-0.30;99.90;;;;;;4956832;29;20182;-86
2022/03/03 08:17:53;;;;;;;57.80;33.47;;;-0.20;99.90;;;;;;4940742;29;20672;-88
2022/03/03 08:20:22;;;;;;;58.93;32.33;;;0.00;99.90;;;;;;4940838;29;20188;-88
2022/03/03 08:22:48;;;;;;;65.93;36.93;;;0.10;99.90;;;;;;4942222;29;20238;-87
2022/03/03 08:25:15;;;;;;;63.47;35.87;;;0.10;99.90;;;;;;4904834;29;20193;-87
2022/03/03 08:27:41;;;;;;;65.83;37.83;;;0.20;99.90;;;;;;4902565;29;20213;-88
2022/03/03 08:30:10;;;;;;;67.67;38.40;;;0.30;99.90;;;;;;4902741;29;20249;-87
2022/03/03 08:32:43;;;;;;;71.00;38.20;;;0.30;99.90;;;;;;4902630;29;20181;-88
2022/03/03 08:35:21;;;;;;;67.20;38.10;;;0.40;99.90;;;;;;4902751;29;20186;-88
2022/03/03 08:38:01;;;;;;;66.53;37.03;;;0.50;99.90;;;;;;4902652;29;20209;-89
2022/03/03 08:40:29;;;;;;;70.20;37.20;;;0.60;99.90;;;;;;4919540;29;20206;-87
2022/03/03 08:42:58;;;;;;;67.00;37.67;;;0.70;99.90;;;;;;4902574;29;20268;-87
2022/03/03 08:45:28;;;;;;;65.23;37.80;;;0.80;99.90;;;;;;4902565;29;20649;-88
2022/03/03 08:48:06;;;;;;;70.73;37.30;;;0.90;99.90;;;;;;4902610;29;20232;-87
2022/03/03 08:50:37;;;;;;;64.10;36.87;;;1.00;99.90;;;;;;4902251;29;20213;-89
2022/03/03 08:53:05;;;;;;;69.50;39.30;;;1.10;99.90;;;;;;4904984;29;20243;-88
2022/03/03 08:55:31;;;;;;;68.57;37.83;;;1.10;99.90;;;;;;4939812;29;20237;-89
2022/03/03 08:57:58;;;;;;;69.17;37.43;;;1.10;99.90;;;;;;4939864;29;20188;-89
2022/03/03 09:00:30;;;;;;;66.00;37.10;;;1.20;99.90;;;;;;4939859;29;20177;-89
2022/03/03 09:02:56;;;;;;;70.63;37.57;;;1.40;99.90;;;;;;4940280;29;20540;-89
2022/03/03 09:05:22;;;;;;;64.73;37.73;;;1.40;99.90;;;;;;4957072;29;20204;-87
2022/03/03 09:07:48;;;;;;;63.40;36.07;;;1.50;99.90;;;;;;4955961;29;20182;-89
2022/03/03 09:10:15;;;;;;;68.03;37.30;;;1.60;99.90;;;;;;4940025;29;20606;-89
2022/03/03 09:12:41;;;;;;;67.20;37.43;;;1.70;99.90;;;;;;4939919;29;20173;-89
2022/03/03 09:15:08;;;;;;;66.37;37.30;;;1.70;99.90;;;;;;4939922;29;20181;-89
2022/03/03 09:17:35;;;;;;;59.00;36.23;;;1.90;99.90;;;;;;4939942;29;20244;-89
2022/03/03 09:20:11;;;;;;;60.23;35.77;;;2.00;99.90;;;;;;4939842;29;20185;-90
2022/03/03 09:22:37;;;;;;;55.50;33.70;;;2.10;99.90;;;;;;4939764;29;20176;-88
2022/03/03 09:25:04;;;;;;;58.87;35.33;;;2.10;99.90;;;;;;4922790;29;20188;-90
2022/03/03 09:27:29;;;;;;;63.33;35.63;;;2.20;99.90;;;;;;4920510;29;20220;-90
2022/03/03 09:29:58;;;;;;;55.27;33.63;;;2.30;99.90;;;;;;4920629;29;20241;-91
2022/03/03 09:32:24;;;;;;;59.60;33.70;;;2.30;99.90;;;;;;4920878;29;20252;-90
2022/03/03 09:34:50;;;;;;;57.70;33.97;;;2.40;99.90;;;;;;4920797;29;20178;-89
2022/03/03 09:37:16;;;;;;;56.40;33.20;;;2.50;99.90;;;;;;4920702;29;20182;-91
2022/03/03 09:39:43;;;;;;;61.63;34.83;;;2.60;99.90;;;;;;4920698;29;20186;-91
2022/03/03 09:42:09;;;;;;;60.67;34.23;;;2.70;99.90;;;;;;4920678;29;20179;-91
2022/03/03 09:44:36;;;;;;;60.27;36.20;;;2.70;99.90;;;;;;4920400;29;20191;-91
2022/03/03 09:47:02;;;;;;;56.77;33.77;;;2.80;99.90;;;;;;4920708;29;20237;-92
2022/03/03 09:49:28;;;;;;;62.27;34.80;;;2.90;99.90;;;;;;4938978;29;20276;-90
2022/03/03 09:51:54;;;;;;;61.47;35.40;;;3.00;99.90;;;;;;4924253;29;20704;-91
2022/03/03 09:54:20;;;;;;;58.27;35.03;;;3.10;99.90;;;;;;4924416;29;20217;-91
2022/03/03 09:56:46;;;;;;;59.80;35.10;;;3.20;99.90;;;;;;4923798;29;20278;-91
2022/03/03 09:59:12;;;;;;;58.33;34.77;;;3.20;99.90;;;;;;4924390;29;20617;-91
2022/03/03 10:02:02;;;;;;;65.40;36.93;;;3.30;99.90;;;;;;4924298;29;20180;-92
2022/03/03 10:04:28;;;;;;;59.03;34.83;;;3.40;99.90;;;;;;4924230;29;20280;-91
2022/03/03 10:06:53;;;;;;;61.03;34.77;;;3.40;99.90;;;;;;4923573;29;20210;-90
2022/03/03 10:09:19;;;;;;;62.77;35.97;;;3.40;99.90;;;;;;4924044;29;20611;-91
2022/03/03 10:11:49;;;;;;;60.47;34.50;;;3.40;99.90;;;;;;4923812;29;20196;-92
2022/03/03 10:14:36;;;;;;;61.63;36.10;;;3.50;99.90;;;;;;4939932;29;20182;-91
2022/03/03 10:17:06;;;;;;;60.37;33.57;;;3.60;99.90;;;;;;4923985;29;20174;-91
2022/03/03 10:19:33;;;;;;;54.60;33.33;;;3.80;99.90;;;;;;4923862;29;20200;-90
2022/03/03 10:22:08;;;;;;;54.97;32.33;;;3.90;99.90;;;;;;4923756;29;20225;-90
2022/03/03 10:24:34;;;;;;;51.87;31.30;;;4.00;99.90;;;;;;4933048;29;20192;-91
2022/03/03 10:27:06;;;;;;;53.33;31.53;;;4.10;99.90;;;;;;4959841;29;20211;-90
2022/03/03 10:29:33;;;;;;;53.47;32.40;;;4.10;99.90;;;;;;4959896;29;20203;-90
2022/03/03 10:32:27;;;;;;;54.90;31.33;;;4.20;99.90;;;;;;4936886;29;20695;-90
2022/03/03 10:34:53;;;;;;;53.27;31.70;;;4.20;99.90;;;;;;4939478;29;20173;-89
2022/03/03 10:37:23;;;;;;;54.13;31.00;;;4.20;99.90;;;;;;4923421;29;20617;-91
2022/03/03 10:39:59;;;;;;;49.90;29.63;;;4.30;99.90;;;;;;4940484;29;20555;-91
2022/03/03 10:42:26;;;;;;;51.93;30.03;;;4.30;99.90;;;;;;4923625;29;20197;-89
2022/03/03 10:45:07;;;;;;;51.70;30.70;;;4.40;99.90;;;;;;4940504;29;20620;-91
2022/03/03 10:47:33;;;;;;;50.37;28.43;;;4.50;99.90;;;;;;4940450;29;20624;-91
2022/03/03 10:50:01;;;;;;;49.67;29.43;;;4.60;99.90;;;;;;4940176;29;20269;-92
2022/03/03 10:53:08;;;;;;;55.17;28.73;;;4.60;99.90;;;;;;4923308;29;20182;-91
2022/03/03 10:55:33;;;;;;;46.97;26.23;;;4.60;99.90;;;;;;4923062;29;20232;-91
2022/03/03 10:58:00;;;;;;;42.73;26.23;;;4.80;99.90;;;;;;4923299;29;20178;-91
2022/03/03 11:00:29;;;;;;;40.77;24.20;;;4.80;99.90;;;;;;4939081;29;20229;-91
2022/03/03 11:03:06;;;;;;;43.00;26.07;;;4.80;99.90;;;;;;4935170;29;20188;-92
2022/03/03 11:05:33;;;;;;;43.47;25.73;;;4.80;99.90;;;;;;4942245;29;20255;-92
2022/03/03 11:07:58;;;;;;;43.43;24.97;;;4.90;99.90;;;;;;4959310;29;20173;-93
2022/03/03 11:10:29;;;;;;;42.23;23.00;;;5.00;99.90;;;;;;4941856;29;20546;-92
2022/03/03 11:13:02;;;;;;;38.40;21.90;;;5.10;99.90;;;;;;4942360;29;20574;-91
2022/03/03 11:15:28;;;;;;;43.67;23.73;;;5.10;99.90;;;;;;4942165;29;20196;-92
2022/03/03 11:17:55;;;;;;;34.13;19.23;;;5.30;99.90;;;;;;4941882;29;20272;-93
2022/03/03 11:20:21;;;;;;;31.37;16.67;;;5.40;99.90;;;;;;4941986;29;20177;-93
2022/03/03 11:22:56;;;;;;;29.83;16.97;;;5.50;99.90;;;;;;4940694;29;20193;-92
2022/03/03 11:25:38;;;;;;;29.70;17.73;;;5.60;99.90;;;;;;4941555;29;20177;-94
2022/03/03 11:28:07;;;;;;;32.27;18.60;;;5.50;99.90;;;;;;4941747;29;20173;-92
2022/03/03 11:30:34;;;;;;;36.70;20.80;;;5.60;99.90;;;;;;4941611;29;20671;-93
2022/03/03 11:33:33;;;;;;;30.53;18.93;;;5.60;99.90;;;;;;4941721;29;20562;-92
2022/03/03 11:36:04;;;;;;;39.67;22.13;;;5.70;99.90;;;;;;4941681;29;20173;-94
2022/03/03 11:38:44;;;;;;;32.03;20.10;;;5.60;99.90;;;;;;4941255;29;20182;-96
2022/03/03 11:41:13;;;;;;;36.83;22.50;;;5.60;99.90;;;;;;4941343;29;20683;-94
2022/03/03 11:43:57;;;;;;;37.90;22.77;;;5.50;99.90;;;;;;4941444;29;20609;-94
2022/03/03 11:46:46;;;;;;;36.93;23.43;;;5.20;99.90;;;;;;4941297;29;20185;-91
2022/03/03 11:49:17;;;;;;;40.07;22.20;;;5.20;99.90;;;;;;4941298;29;20229;-92
2022/03/03 11:51:44;;;;;;;37.40;23.53;;;5.00;99.90;;;;;;4941290;29;20294;-94
2022/03/03 11:54:11;;;;;;;36.47;22.03;;;4.80;99.90;;;;;;4940977;29;20216;-93
2022/03/03 11:57:08;;;;;;;38.17;24.33;;;4.60;99.90;;;;;;4940896;29;20320;-93
2022/03/03 11:59:36;;;;;;;38.00;24.03;;;4.40;99.90;;;;;;4957240;29;20181;-94
2022/03/03 12:02:26;;;;;;;35.27;23.90;;;4.40;99.90;;;;;;4958187;29;20173;-94
2022/03/03 12:05:27;;;;;;;39.13;24.03;;;4.40;99.90;;;;;;4941162;29;20185;-93
2022/03/03 12:07:56;;;;;;;39.07;23.97;;;4.20;99.90;;;;;;4922655;29;20203;-93
2022/03/03 12:10:22;;;;;;;35.27;22.77;;;4.10;99.90;;;;;;4957976;29;20212;-95
2022/03/03 12:12:48;;;;;;;34.40;21.83;;;4.00;99.90;;;;;;4940546;29;20184;-90
2022/03/03 12:15:14;;;;;;;34.23;22.13;;;3.90;99.90;;;;;;4940801;29;20543;-94
2022/03/03 12:17:46;;;;;;;33.43;21.40;;;3.80;99.90;;;;;;4956764;29;20499;-94
2022/03/03 12:20:24;;;;;;;34.67;20.77;;;3.60;99.90;;;;;;4940931;29;20181;-94
2022/03/03 12:23:13;;;;;;;34.40;20.13;;;3.40;99.90;;;;;;4956660;29;20215;-93
2022/03/03 12:25:50;;;;;;;34.03;20.10;;;3.50;99.90;;;;;;4921509;29;20313;-92
2022/03/03 12:28:39;;;;;;;28.47;18.67;;;3.60;99.90;;;;;;4937385;29;20276;-91
2022/03/03 12:31:30;;;;;;;28.43;18.33;;;3.80;99.90;;;;;;4921791;29;20723;-94
2022/03/03 12:34:02;;;;;;;28.60;17.70;;;4.00;99.90;;;;;;4921480;29;20178;-88
2022/03/03 12:36:36;;;;;;;28.00;17.20;;;3.80;99.90;;;;;;4921768;29;20196;-91
2022/03/03 12:39:04;;;;;;;28.50;16.87;;;3.70;99.90;;;;;;4921345;29;20180;-91
2022/03/03 12:41:32;;;;;;;27.80;16.83;;;3.60;99.90;;;;;;4921424;29;20204;-91